createdAt,value
2018-07-20T00:00:38.091Z,319.00
2018-07-20T00:01:38.915Z,319.00
2018-07-20T00:02:39.685Z,319.00
2018-07-20T00:03:40.466Z,320.00
2018-07-20T00:04:41.248Z,319.00
2018-07-20T00:05:42.026Z,319.00
2018-07-20T00:06:42.842Z,319.00
2018-07-20T00:07:43.609Z,320.00
2018-07-20T00:08:44.389Z,319.00
2018-07-20T00:09:45.157Z,320.00
2018-07-20T00:10:45.941Z,319.00
2018-07-20T00:11:46.739Z,319.00
2018-07-20T00:12:47.514Z,320.00
2018-07-20T00:13:48.289Z,319.00
2018-07-20T00:14:49.066Z,319.00
2018-07-20T00:15:49.848Z,319.00
2018-07-20T00:16:50.717Z,319.00
2018-07-20T00:17:50.431Z,319.00
2018-07-20T00:18:52.219Z,319.00
2018-07-20T00:19:52.986Z,319.00
2018-07-20T00:20:53.767Z,319.00
2018-07-20T00:21:54.561Z,320.00
2018-07-20T00:22:55.344Z,319.00
2018-07-20T00:23:56.112Z,319.00
2018-07-20T00:24:56.894Z,319.00
2018-07-20T00:25:57.667Z,319.00
2018-07-20T00:26:58.468Z,319.00
2018-07-20T00:27:59.245Z,319.00
2018-07-20T00:29:00.024Z,319.00
2018-07-20T00:30:00.796Z,319.00
2018-07-20T00:31:01.575Z,320.00
2018-07-20T00:32:02.375Z,320.00
2018-07-20T00:33:03.160Z,319.00
2018-07-20T00:34:03.931Z,319.00
2018-07-20T00:35:04.721Z,319.00
2018-07-20T00:36:05.487Z,319.00
2018-07-20T00:37:06.295Z,319.00
2018-07-20T00:38:07.066Z,319.00
2018-07-20T00:39:06.847Z,319.00
2018-07-20T00:40:08.621Z,320.00
2018-07-20T00:41:09.398Z,319.00
2018-07-20T00:42:10.202Z,319.00
2018-07-20T00:43:10.976Z,319.00
2018-07-20T00:44:11.752Z,319.00
2018-07-20T00:45:12.528Z,319.00
2018-07-20T00:46:13.397Z,319.00
2018-07-20T00:47:13.124Z,319.00
2018-07-20T00:48:14.898Z,319.00
2018-07-20T00:49:15.674Z,320.00
2018-07-20T00:50:16.449Z,319.00
2018-07-20T00:51:17.224Z,319.00
2018-07-20T00:52:18.034Z,319.00
2018-07-20T00:53:18.808Z,319.00
2018-07-20T00:54:19.586Z,319.00
2018-07-20T00:55:20.360Z,319.00
2018-07-20T00:56:21.135Z,320.00
2018-07-20T00:57:21.940Z,319.00
2018-07-20T00:58:22.721Z,320.00
2018-07-20T00:59:23.492Z,319.00
2018-07-20T01:00:24.273Z,319.00
2018-07-20T01:01:25.046Z,319.00
2018-07-20T01:02:25.846Z,319.00
2018-07-20T01:03:27.064Z,319.00
2018-07-20T01:06:24.212Z,320.00
2018-07-20T01:07:24.989Z,319.00
2018-07-20T01:08:25.788Z,319.00
2018-07-20T01:09:26.567Z,320.00
2018-07-20T01:10:27.339Z,319.00
2018-07-20T01:11:28.111Z,319.00
2018-07-20T01:12:28.887Z,319.00
2018-07-20T01:13:29.688Z,320.00
2018-07-20T01:14:30.463Z,319.00
2018-07-20T01:15:31.239Z,319.00
2018-07-20T01:16:32.010Z,319.00
2018-07-20T01:17:32.790Z,319.00
2018-07-20T01:18:33.621Z,320.00
2018-07-20T01:19:34.386Z,319.00
2018-07-20T01:20:35.165Z,319.00
2018-07-20T01:21:35.939Z,319.00
2018-07-20T01:22:36.719Z,320.00
2018-07-20T01:23:37.517Z,319.00
2018-07-20T01:24:38.296Z,319.00
2018-07-20T01:25:39.067Z,319.00
2018-07-20T01:26:39.848Z,319.00
2018-07-20T01:27:40.635Z,320.00
2018-07-20T01:28:41.431Z,319.00
2018-07-20T01:29:42.205Z,319.00
2018-07-20T01:30:42.998Z,319.00
2018-07-20T01:31:43.760Z,320.00
2018-07-20T01:32:44.538Z,319.00
2018-07-20T01:33:45.334Z,319.00
2018-07-20T01:34:46.114Z,319.00
2018-07-20T01:35:46.885Z,319.00
2018-07-20T01:36:47.665Z,319.00
2018-07-20T01:37:48.438Z,319.00
2018-07-20T01:38:49.240Z,319.00
2018-07-20T01:39:50.017Z,319.00
2018-07-20T01:40:50.795Z,320.00
2018-07-20T01:41:51.568Z,319.00
2018-07-20T01:42:52.342Z,319.00
2018-07-20T01:43:53.152Z,319.00
2018-07-20T01:44:53.927Z,319.00
2018-07-20T01:45:54.709Z,320.00
2018-07-20T01:46:55.479Z,319.00
2018-07-20T01:47:56.257Z,319.00
2018-07-20T01:48:57.066Z,319.00
2018-07-20T01:49:57.840Z,320.00
2018-07-20T01:50:58.615Z,319.00
2018-07-20T01:51:59.392Z,319.00
2018-07-20T01:53:00.164Z,319.00
2018-07-20T01:54:00.971Z,319.00
2018-07-20T01:55:01.747Z,319.00
2018-07-20T01:56:02.519Z,319.00
2018-07-20T01:57:03.299Z,319.00
2018-07-20T01:58:04.074Z,319.00
2018-07-20T01:59:04.880Z,320.00
2018-07-20T02:00:05.657Z,319.00
2018-07-20T02:01:06.441Z,319.00
2018-07-20T02:02:07.237Z,319.00
2018-07-20T02:03:07.993Z,320.00
2018-07-20T02:04:08.797Z,319.00
2018-07-20T02:05:09.571Z,319.00
2018-07-20T02:06:10.357Z,319.00
2018-07-20T02:07:11.132Z,319.00
2018-07-20T02:08:11.908Z,320.00
2018-07-20T02:09:12.715Z,319.00
2018-07-20T02:10:13.496Z,319.00
2018-07-20T02:11:14.269Z,319.00
2018-07-20T02:12:15.042Z,319.00
2018-07-20T02:13:15.813Z,320.00
2018-07-20T02:14:16.620Z,319.00
2018-07-20T02:15:17.395Z,319.00
2018-07-20T02:16:18.171Z,319.00
2018-07-20T02:17:18.945Z,320.00
2018-07-20T02:18:19.719Z,319.00
2018-07-20T02:19:20.525Z,320.00
2018-07-20T02:20:21.307Z,319.00
2018-07-20T02:21:22.084Z,319.00
2018-07-20T02:22:22.867Z,319.00
2018-07-20T02:23:23.639Z,319.00
2018-07-20T02:24:24.449Z,319.00
2018-07-20T02:25:25.220Z,319.00
2018-07-20T02:26:26.002Z,320.00
2018-07-20T02:27:26.775Z,319.00
2018-07-20T02:28:27.560Z,319.00
2018-07-20T02:29:28.378Z,319.00
2018-07-20T02:30:29.146Z,319.00
2018-07-20T02:31:29.933Z,320.00
2018-07-20T02:32:30.704Z,319.00
2018-07-20T02:33:31.474Z,319.00
2018-07-20T02:34:32.301Z,319.00
2018-07-20T02:35:33.064Z,320.00
2018-07-20T02:36:33.855Z,319.00
2018-07-20T02:37:34.614Z,319.00
2018-07-20T02:38:35.398Z,319.00
2018-07-20T02:39:36.202Z,319.00
2018-07-20T02:40:36.969Z,320.00
2018-07-20T02:41:37.747Z,319.00
2018-07-20T02:42:38.520Z,319.00
2018-07-20T02:43:39.298Z,319.00
2018-07-20T02:44:40.099Z,319.00
2018-07-20T02:45:40.877Z,319.00
2018-07-20T02:46:41.682Z,319.00
2018-07-20T02:47:42.440Z,319.00
2018-07-20T02:48:43.222Z,319.00
2018-07-20T02:49:44.018Z,320.00
2018-07-20T02:50:44.798Z,319.00
2018-07-20T02:51:45.572Z,319.00
2018-07-20T02:52:46.362Z,319.00
2018-07-20T02:53:47.587Z,319.00
2018-07-20T03:04:44.184Z,320.00
2018-07-20T03:05:44.987Z,320.00
2018-07-20T03:06:45.769Z,320.00
2018-07-20T03:07:46.541Z,320.00
2018-07-20T03:08:47.323Z,320.00
2018-07-20T03:09:48.091Z,320.00
2018-07-20T03:10:48.894Z,320.00
2018-07-20T03:11:49.671Z,320.00
2018-07-20T03:12:50.453Z,320.00
2018-07-20T03:13:51.222Z,320.00
2018-07-20T03:14:52.003Z,319.00
2018-07-20T03:15:52.808Z,320.00
2018-07-20T03:16:53.582Z,320.00
2018-07-20T03:17:54.359Z,320.00
2018-07-20T03:18:55.133Z,320.00
2018-07-20T03:19:55.908Z,320.00
2018-07-20T03:20:56.739Z,320.00
2018-07-20T03:21:56.487Z,320.00
2018-07-20T03:22:58.264Z,320.00
2018-07-20T03:23:59.040Z,320.00
2018-07-20T03:24:59.816Z,320.00
2018-07-20T03:26:00.618Z,320.00
2018-07-20T03:27:01.396Z,320.00
2018-07-20T03:28:02.178Z,320.00
2018-07-20T03:29:02.956Z,321.00
2018-07-20T03:30:03.732Z,320.00
2018-07-20T03:31:04.536Z,320.00
2018-07-20T03:32:05.321Z,320.00
2018-07-20T03:33:06.094Z,320.00
2018-07-20T03:34:06.887Z,321.00
2018-07-20T03:35:07.650Z,320.00
2018-07-20T03:36:08.462Z,321.00
2018-07-20T03:37:09.231Z,320.00
2018-07-20T03:38:10.008Z,320.00
2018-07-20T03:39:10.781Z,320.00
2018-07-20T03:40:11.559Z,320.00
2018-07-20T03:41:12.363Z,320.00
2018-07-20T03:42:13.139Z,320.00
2018-07-20T03:43:13.914Z,321.00
2018-07-20T03:44:14.692Z,320.00
2018-07-20T03:45:15.471Z,320.00
2018-07-20T03:46:15.274Z,321.00
2018-07-20T03:47:17.050Z,320.00
2018-07-20T03:48:17.835Z,320.00
2018-07-20T03:49:18.599Z,320.00
2018-07-20T03:50:19.392Z,320.00
2018-07-20T03:51:20.178Z,320.00
2018-07-20T03:52:20.967Z,320.00
2018-07-20T03:53:21.730Z,320.00
2018-07-20T03:54:22.509Z,320.00
2018-07-20T03:55:23.282Z,320.00
2018-07-20T03:56:24.090Z,320.00
2018-07-20T03:57:24.866Z,320.00
2018-07-20T03:58:25.639Z,320.00
2018-07-20T03:59:26.418Z,320.00
2018-07-20T04:00:27.190Z,320.00
2018-07-20T04:01:26.996Z,321.00
2018-07-20T04:02:28.811Z,320.00
2018-07-20T04:03:28.560Z,320.00
2018-07-20T04:04:30.334Z,320.00
2018-07-20T04:05:31.111Z,320.00
2018-07-20T04:06:31.913Z,320.00
2018-07-20T04:07:32.689Z,320.00
2018-07-20T04:08:33.467Z,320.00
2018-07-20T04:09:34.250Z,320.00
2018-07-20T04:10:35.024Z,321.00
2018-07-20T04:11:35.837Z,320.00
2018-07-20T04:12:36.606Z,320.00
2018-07-20T04:13:37.387Z,320.00
2018-07-20T04:14:38.163Z,320.00
2018-07-20T04:15:38.939Z,320.00
2018-07-20T04:16:39.744Z,321.00
2018-07-20T04:17:40.521Z,320.00
2018-07-20T04:18:41.300Z,320.00
2018-07-20T04:19:42.076Z,321.00
2018-07-20T04:20:42.853Z,320.00
2018-07-20T04:21:43.668Z,320.00
2018-07-20T04:22:44.433Z,320.00
2018-07-20T04:23:45.217Z,321.00
2018-07-20T04:24:45.988Z,320.00
2018-07-20T04:25:46.763Z,320.00
2018-07-20T04:26:47.568Z,320.00
2018-07-20T04:27:48.343Z,320.00
2018-07-20T04:28:49.140Z,321.00
2018-07-20T04:29:49.903Z,320.00
2018-07-20T04:30:50.695Z,321.00
2018-07-20T04:31:51.493Z,320.00
2018-07-20T04:32:52.267Z,320.00
2018-07-20T04:33:53.047Z,320.00
2018-07-20T04:34:53.824Z,320.00
2018-07-20T04:35:54.620Z,320.00
2018-07-20T04:36:55.413Z,320.00
2018-07-20T04:37:56.192Z,321.00
2018-07-20T04:38:56.962Z,320.00
2018-07-20T04:39:57.745Z,320.00
2018-07-20T04:40:58.517Z,320.00
2018-07-20T04:41:59.325Z,320.00
2018-07-20T04:43:00.100Z,321.00
2018-07-20T04:44:00.883Z,321.00
2018-07-20T04:45:01.656Z,321.00
2018-07-20T04:46:02.436Z,320.00
2018-07-20T04:47:03.236Z,321.00
2018-07-20T04:48:04.017Z,320.00
2018-07-20T04:49:04.790Z,320.00
2018-07-20T04:50:05.568Z,321.00
2018-07-20T04:51:06.344Z,321.00
2018-07-20T04:52:07.152Z,320.00
2018-07-20T04:53:06.926Z,321.00
2018-07-20T04:54:08.701Z,321.00
2018-07-20T04:55:09.497Z,321.00
2018-07-20T04:56:10.711Z,321.00
2018-07-20T05:10:36.937Z,321.00
2018-07-20T05:11:37.707Z,320.00
2018-07-20T05:12:38.489Z,320.00
2018-07-20T05:13:39.283Z,320.00
2018-07-20T05:14:40.066Z,320.00
2018-07-20T05:15:40.833Z,321.00
2018-07-20T05:16:41.614Z,321.00
2018-07-20T05:17:42.383Z,321.00
2018-07-20T05:18:43.187Z,321.00
2018-07-20T05:19:43.963Z,321.00
2018-07-20T05:20:44.735Z,320.00
2018-07-20T05:21:45.514Z,321.00
2018-07-20T05:22:46.285Z,321.00
2018-07-20T05:23:47.090Z,321.00
2018-07-20T05:24:46.866Z,321.00
2018-07-20T05:25:48.640Z,321.00
2018-07-20T05:26:49.415Z,321.00
2018-07-20T05:27:50.189Z,321.00
2018-07-20T05:28:50.994Z,321.00
2018-07-20T05:29:51.778Z,321.00
2018-07-20T05:30:52.552Z,321.00
2018-07-20T05:31:53.326Z,320.00
2018-07-20T05:32:54.104Z,321.00
2018-07-20T05:33:53.908Z,321.00
2018-07-20T05:34:55.683Z,321.00
2018-07-20T05:35:56.464Z,321.00
2018-07-20T05:36:57.239Z,321.00
2018-07-20T05:37:58.015Z,321.00
2018-07-20T05:38:57.822Z,321.00
2018-07-20T05:39:59.600Z,320.00
2018-07-20T05:41:00.397Z,321.00
2018-07-20T05:42:01.166Z,321.00
2018-07-20T05:43:01.943Z,321.00
2018-07-20T05:44:02.764Z,321.00
2018-07-20T05:45:02.523Z,320.00
2018-07-20T05:46:04.305Z,321.00
2018-07-20T05:47:05.081Z,321.00
2018-07-20T05:48:05.856Z,321.00
2018-07-20T05:49:06.662Z,320.00
2018-07-20T05:50:07.448Z,321.00
2018-07-20T05:51:08.213Z,321.00
2018-07-20T05:52:08.998Z,321.00
2018-07-20T05:53:09.768Z,321.00
2018-07-20T05:54:10.576Z,321.00
2018-07-20T05:55:11.348Z,321.00
2018-07-20T05:56:12.124Z,321.00
2018-07-20T05:57:12.900Z,321.00
2018-07-20T05:58:13.675Z,321.00
2018-07-20T05:59:14.483Z,321.00
2018-07-20T06:00:15.276Z,320.00
2018-07-20T06:01:16.045Z,321.00
2018-07-20T06:02:16.819Z,321.00
2018-07-20T06:03:17.599Z,321.00
2018-07-20T06:04:18.402Z,321.00
2018-07-20T06:05:19.184Z,321.00
2018-07-20T06:06:19.957Z,321.00
2018-07-20T06:07:20.743Z,321.00
2018-07-20T06:08:21.516Z,321.00
2018-07-20T06:09:22.321Z,321.00
2018-07-20T06:10:23.094Z,321.00
2018-07-20T06:11:23.874Z,321.00
2018-07-20T06:12:24.671Z,321.00
2018-07-20T06:13:25.440Z,321.00
2018-07-20T06:14:26.247Z,321.00
2018-07-20T06:15:27.021Z,321.00
2018-07-20T06:16:27.803Z,321.00
2018-07-20T06:17:28.574Z,321.00
2018-07-20T06:18:29.358Z,321.00
2018-07-20T06:19:30.164Z,321.00
2018-07-20T06:20:30.941Z,321.00
2018-07-20T06:21:31.727Z,321.00
2018-07-20T06:22:32.502Z,321.00
2018-07-20T06:23:33.379Z,321.00
2018-07-20T06:24:33.078Z,321.00
2018-07-20T06:25:34.856Z,321.00
2018-07-20T06:26:35.630Z,321.00
2018-07-20T06:27:36.408Z,321.00
2018-07-20T06:28:37.184Z,321.00
2018-07-20T06:29:38.060Z,321.00
2018-07-20T06:30:37.768Z,321.00
2018-07-20T06:31:39.540Z,321.00
2018-07-20T06:32:40.314Z,321.00
2018-07-20T06:33:41.098Z,321.00
2018-07-20T06:34:41.900Z,321.00
2018-07-20T06:35:42.676Z,321.00
2018-07-20T06:36:43.451Z,321.00
2018-07-20T06:37:44.235Z,321.00
2018-07-20T06:38:45.013Z,321.00
2018-07-20T06:39:45.815Z,321.00
2018-07-20T06:40:46.635Z,321.00
2018-07-20T06:41:46.363Z,321.00
2018-07-20T06:42:48.137Z,321.00
2018-07-20T06:43:48.914Z,321.00
2018-07-20T06:44:49.720Z,321.00
2018-07-20T06:45:50.499Z,321.00
2018-07-20T06:46:51.271Z,321.00
2018-07-20T06:47:52.049Z,321.00
2018-07-20T06:48:52.831Z,321.00
2018-07-20T06:49:53.638Z,321.00
2018-07-20T06:50:53.411Z,321.00
2018-07-20T06:51:55.186Z,321.00
2018-07-20T06:52:55.963Z,321.00
2018-07-20T06:53:56.738Z,321.00
2018-07-20T06:54:57.541Z,321.00
2018-07-20T06:55:58.382Z,321.00
2018-07-20T06:56:58.101Z,321.00
2018-07-20T06:57:59.876Z,321.00
2018-07-20T06:59:00.654Z,321.00
2018-07-20T07:00:01.460Z,321.00
2018-07-20T07:01:02.235Z,321.00
2018-07-20T07:02:03.013Z,321.00
2018-07-20T07:03:03.800Z,321.00
2018-07-20T07:04:04.588Z,321.00
2018-07-20T07:05:05.812Z,321.00
2018-07-20T07:06:06.076Z,321.00
2018-07-20T07:07:05.339Z,321.00
2018-07-20T07:08:05.602Z,321.00
2018-07-20T07:10:13.382Z,321.00
2018-07-20T07:11:14.160Z,321.00
2018-07-20T07:12:14.938Z,321.00
2018-07-20T07:13:15.712Z,321.00
2018-07-20T07:14:16.487Z,321.00
2018-07-20T07:15:17.398Z,321.00
2018-07-20T07:16:17.067Z,321.00
2018-07-20T07:17:18.843Z,321.00
2018-07-20T07:18:19.624Z,321.00
2018-07-20T07:19:20.392Z,321.00
2018-07-20T07:20:21.194Z,321.00
2018-07-20T07:21:21.974Z,321.00
2018-07-20T07:22:22.753Z,321.00
2018-07-20T07:23:23.528Z,321.00
2018-07-20T07:24:24.303Z,321.00
2018-07-20T07:25:25.104Z,321.00
2018-07-20T07:26:25.891Z,321.00
2018-07-20T07:27:26.668Z,321.00
2018-07-20T07:28:27.442Z,321.00
2018-07-20T07:29:28.217Z,321.00
2018-07-20T07:30:29.027Z,321.00
2018-07-20T07:31:29.798Z,321.00
2018-07-20T07:32:30.577Z,321.00
2018-07-20T07:33:31.349Z,321.00
2018-07-20T07:34:32.126Z,321.00
2018-07-20T07:35:32.925Z,321.00
2018-07-20T07:36:33.700Z,321.00
2018-07-20T07:37:34.477Z,321.00
2018-07-20T07:38:35.252Z,321.00
2018-07-20T07:39:36.029Z,321.00
2018-07-20T07:40:36.855Z,321.00
2018-07-20T07:41:37.620Z,321.00
2018-07-20T07:42:38.474Z,321.00
2018-07-20T07:43:38.237Z,321.00
2018-07-20T07:44:40.001Z,321.00
2018-07-20T07:45:40.807Z,321.00
2018-07-20T07:46:41.583Z,321.00
2018-07-20T07:47:42.361Z,321.00
2018-07-20T07:48:43.157Z,321.00
2018-07-20T07:49:43.919Z,321.00
2018-07-20T07:50:44.722Z,321.00
2018-07-20T07:51:45.503Z,321.00
2018-07-20T07:52:46.282Z,321.00
2018-07-20T07:53:47.065Z,321.00
2018-07-20T07:54:47.867Z,321.00
2018-07-20T07:55:47.639Z,320.00
2018-07-20T07:56:49.418Z,321.00
2018-07-20T07:57:50.194Z,321.00
2018-07-20T07:58:50.980Z,321.00
2018-07-20T07:59:51.765Z,321.00
2018-07-20T08:00:52.559Z,321.00
2018-07-20T08:01:53.335Z,321.00
2018-07-20T08:02:57.120Z,321.00
2018-07-20T13:41:29.201Z,326.00
2018-07-20T13:42:29.989Z,326.00
2018-07-20T13:43:29.749Z,325.00
2018-07-20T13:44:31.526Z,325.00
2018-07-20T13:45:32.299Z,325.00
2018-07-20T13:46:33.108Z,326.00
2018-07-20T13:47:33.884Z,325.00
2018-07-20T13:48:34.661Z,325.00
2018-07-20T13:49:35.454Z,325.00
2018-07-20T13:50:18.260Z,370.00
2018-07-20T13:51:05.535Z,361.00
2018-07-20T13:58:53.536Z,398.00
2018-07-20T13:59:54.315Z,398.00
2018-07-20T14:00:55.089Z,399.00
2018-07-20T14:01:55.888Z,399.00
2018-07-20T14:02:56.670Z,399.00
2018-07-20T14:03:57.446Z,398.00
2018-07-20T14:04:58.223Z,398.00
2018-07-20T14:05:59.012Z,392.00
2018-07-20T14:06:59.808Z,375.00
2018-07-20T14:08:00.591Z,398.00
2018-07-20T14:09:01.370Z,397.00
2018-07-20T14:10:02.148Z,394.00
2018-07-20T14:11:02.928Z,397.00
2018-07-20T14:12:03.742Z,397.00
2018-07-20T14:13:04.504Z,397.00
2018-07-20T14:14:05.284Z,397.00
2018-07-20T14:15:05.058Z,364.00
2018-07-20T14:16:06.837Z,394.00
2018-07-20T14:17:07.703Z,355.00
2018-07-20T14:18:08.608Z,352.00
2018-07-20T14:19:08.263Z,393.00
2018-07-20T14:20:10.041Z,341.00
2018-07-20T14:21:10.824Z,352.00
2018-07-20T14:22:11.632Z,340.00
2018-07-20T14:23:12.413Z,350.00
2018-07-20T14:24:13.181Z,346.00
2018-07-20T14:25:13.962Z,338.00
2018-07-20T14:26:14.788Z,341.00
2018-07-20T14:27:14.554Z,344.00
2018-07-20T14:28:16.326Z,348.00
2018-07-20T14:29:17.106Z,336.00
2018-07-20T14:30:17.878Z,343.00
2018-07-20T14:31:18.694Z,334.00
2018-07-20T14:32:18.462Z,342.00
2018-07-20T14:33:20.244Z,333.00
2018-07-20T14:34:21.015Z,333.00
2018-07-20T14:35:21.790Z,341.00
2018-07-20T14:36:22.585Z,333.00
2018-07-20T14:37:22.376Z,333.00
2018-07-20T14:38:24.151Z,333.00
2018-07-20T14:39:24.926Z,338.00
2018-07-20T14:40:25.703Z,333.00
2018-07-20T14:41:26.480Z,334.00
2018-07-20T14:42:27.292Z,343.00
2018-07-20T14:43:28.063Z,334.00
2018-07-20T14:44:28.841Z,336.00
2018-07-20T14:45:29.615Z,334.00
2018-07-20T14:46:29.394Z,343.00
2018-07-20T14:47:31.194Z,343.00
2018-07-20T14:48:31.971Z,363.00
2018-07-20T14:49:32.756Z,366.00
2018-07-20T14:50:33.530Z,369.00
2018-07-20T14:51:34.320Z,354.00
2018-07-20T14:52:35.116Z,352.00
2018-07-20T14:53:35.891Z,352.00
2018-07-20T14:54:36.670Z,349.00
2018-07-20T14:55:37.455Z,348.00
2018-07-20T14:56:38.251Z,346.00
2018-07-20T14:57:39.041Z,349.00
2018-07-20T14:58:39.828Z,346.00
2018-07-20T14:59:40.609Z,346.00
2018-07-20T15:00:41.383Z,346.00
2018-07-20T15:01:42.205Z,349.00
2018-07-20T15:02:41.970Z,345.00
2018-07-20T15:03:43.744Z,346.00
2018-07-20T15:04:44.524Z,348.00
2018-07-20T15:05:45.299Z,356.00
2018-07-20T15:06:46.108Z,357.00
2018-07-20T15:07:46.892Z,353.00
2018-07-20T15:08:47.672Z,349.00
2018-07-20T15:09:48.445Z,349.00
2018-07-20T15:10:49.224Z,349.00
2018-07-20T15:11:50.181Z,349.00
2018-07-20T15:12:49.915Z,349.00
2018-07-20T15:13:51.705Z,350.00
2018-07-20T15:14:52.467Z,351.00
2018-07-20T15:15:53.248Z,355.00
2018-07-20T15:16:54.023Z,353.00
2018-07-20T15:17:54.858Z,346.00
2018-07-20T15:18:54.651Z,346.00
2018-07-20T15:19:55.400Z,348.00
2018-07-20T15:20:57.178Z,349.00
2018-07-20T15:21:57.947Z,349.00
2018-07-20T15:22:58.749Z,349.00
2018-07-20T15:23:59.530Z,351.00
2018-07-20T15:25:01.302Z,356.00
2018-07-20T15:26:01.163Z,358.00
2018-07-20T15:27:00.864Z,362.00
2018-07-20T15:28:02.681Z,353.00
2018-07-20T15:29:03.458Z,352.00
2018-07-20T15:30:04.235Z,348.00
2018-07-20T15:31:05.013Z,348.00
2018-07-20T15:32:05.790Z,346.00
2018-07-20T15:33:06.596Z,349.00
2018-07-20T15:34:07.376Z,348.00
2018-07-20T15:35:08.149Z,344.00
2018-07-20T15:36:08.926Z,343.00
2018-07-20T15:37:09.701Z,341.00
2018-07-20T15:38:10.541Z,338.00
2018-07-20T15:39:10.297Z,341.00
2018-07-20T15:40:12.075Z,340.00
2018-07-20T15:41:12.855Z,332.00
2018-07-20T15:42:13.627Z,340.00
2018-07-20T15:43:14.437Z,342.00
2018-07-20T15:44:15.226Z,337.00
2018-07-20T15:45:16.003Z,334.00
2018-07-20T15:46:16.830Z,334.00
2018-07-20T15:47:16.578Z,333.00
2018-07-20T15:48:17.367Z,332.00
2018-07-20T15:49:19.140Z,332.00
2018-07-20T15:50:19.917Z,332.00
2018-07-20T15:51:31.576Z,332.00
2018-07-20T15:53:37.360Z,331.00
2018-07-20T15:54:22.116Z,331.00
2018-07-20T15:55:22.845Z,331.00
2018-07-20T15:56:24.706Z,330.00
2018-07-20T15:57:24.411Z,330.00
2018-07-20T15:58:26.214Z,330.00
2018-07-20T15:59:26.994Z,329.00
2018-07-20T16:00:27.772Z,328.00
2018-07-20T16:01:28.555Z,328.00
2018-07-20T16:02:30.778Z,327.00
2018-07-20T16:03:30.335Z,327.00
2018-07-20T16:14:04.120Z,322.00
2018-07-20T16:15:04.895Z,322.00
2018-07-20T16:16:05.672Z,322.00
2018-07-20T16:17:06.491Z,321.00
2018-07-20T16:18:06.225Z,321.00
2018-07-20T16:19:08.028Z,321.00
2018-07-20T16:20:08.822Z,321.00
2018-07-20T16:21:09.589Z,321.00
2018-07-20T16:22:10.451Z,321.00
2018-07-20T16:23:10.176Z,321.00
2018-07-20T16:24:11.970Z,322.00
2018-07-20T16:25:12.749Z,321.00
2018-07-20T16:26:13.624Z,322.00
2018-07-20T16:27:13.299Z,321.00
2018-07-20T16:28:15.074Z,322.00
2018-07-20T16:29:15.880Z,322.00
2018-07-20T16:30:16.661Z,324.00
2018-07-20T16:31:17.435Z,324.00
2018-07-20T16:32:18.225Z,325.00
2018-07-20T16:33:18.992Z,325.00
2018-07-20T16:34:19.799Z,326.00
2018-07-20T16:35:20.573Z,327.00
2018-07-20T16:36:21.350Z,327.00
2018-07-20T16:37:22.127Z,328.00
2018-07-20T16:38:22.902Z,328.00
2018-07-20T16:39:23.707Z,328.00
2018-07-20T16:40:24.490Z,329.00
2018-07-20T16:41:25.269Z,329.00
2018-07-20T16:42:26.045Z,329.00
2018-07-20T16:43:26.844Z,329.00
2018-07-20T16:44:27.624Z,329.00
2018-07-20T16:45:28.394Z,328.00
2018-07-20T16:46:29.174Z,328.00
2018-07-20T16:47:29.946Z,328.00
2018-07-20T16:48:30.726Z,327.00
2018-07-20T16:49:31.527Z,328.00
2018-07-20T16:50:32.301Z,327.00
2018-07-20T16:51:33.076Z,326.00
2018-07-20T16:52:33.852Z,326.00
2018-07-20T16:53:34.630Z,327.00
2018-07-20T16:54:35.437Z,327.00
2018-07-20T16:55:37.215Z,327.00
2018-07-20T16:56:36.988Z,327.00
2018-07-20T16:57:37.767Z,328.00
2018-07-20T16:58:38.544Z,328.00
2018-07-20T16:59:39.350Z,328.00
2018-07-20T17:00:40.127Z,329.00
2018-07-20T17:01:40.900Z,330.00
2018-07-20T17:02:41.680Z,329.00
2018-07-20T17:03:42.453Z,331.00
2018-07-20T17:04:43.260Z,332.00
2018-07-20T17:05:44.043Z,332.00
2018-07-20T17:06:44.819Z,332.00
2018-07-20T17:07:45.602Z,331.00
2018-07-20T17:08:46.372Z,331.00
2018-07-20T17:09:47.178Z,331.00
2018-07-20T17:10:47.953Z,331.00
2018-07-20T17:11:48.733Z,331.00
2018-07-20T17:12:49.516Z,331.00
2018-07-20T17:13:50.294Z,331.00
2018-07-20T17:14:51.096Z,331.00
2018-07-20T17:15:51.886Z,330.00
2018-07-20T17:16:52.657Z,330.00
2018-07-20T17:17:53.435Z,331.00
2018-07-20T17:18:54.213Z,330.00
2018-07-20T17:19:55.032Z,330.00
2018-07-20T17:20:55.801Z,330.00
2018-07-20T17:21:56.583Z,330.00
2018-07-20T17:22:57.357Z,330.00
2018-07-20T17:23:58.134Z,330.00
2018-07-20T17:24:58.942Z,329.00
2018-07-20T17:25:59.717Z,330.00
2018-07-20T17:27:00.494Z,328.00
2018-07-20T17:28:01.298Z,329.00
2018-07-20T17:29:01.053Z,329.00
2018-07-20T17:30:02.888Z,330.00
2018-07-20T17:31:03.657Z,329.00
2018-07-20T17:32:04.436Z,330.00
2018-07-20T17:33:05.223Z,330.00
2018-07-20T17:34:06.005Z,330.00
2018-07-20T17:35:06.822Z,329.00
2018-07-20T17:36:07.597Z,330.00
2018-07-20T17:37:08.372Z,330.00
2018-07-20T17:38:09.148Z,330.00
2018-07-20T17:39:09.926Z,330.00
2018-07-20T17:40:10.739Z,329.00
2018-07-20T17:41:11.508Z,330.00
2018-07-20T17:42:12.290Z,330.00
2018-07-20T17:43:13.085Z,330.00
2018-07-20T17:44:13.860Z,329.00
2018-07-20T17:45:14.738Z,329.00
2018-07-20T17:46:14.444Z,329.00
2018-07-20T17:47:16.220Z,328.00
2018-07-20T17:48:17.020Z,328.00
2018-07-20T17:49:17.783Z,328.00
2018-07-20T17:50:18.587Z,328.00
2018-07-20T17:51:18.398Z,328.00
2018-07-20T17:52:20.199Z,328.00
2018-07-20T17:53:20.975Z,328.00
2018-07-20T17:54:21.734Z,328.00
2018-07-20T17:55:23.541Z,326.00
2018-07-20T17:56:23.379Z,327.00
2018-07-20T17:57:23.093Z,327.00
2018-07-20T17:58:24.871Z,327.00
2018-07-20T17:59:25.648Z,327.00
2018-07-20T18:00:26.457Z,327.00
2018-07-20T18:01:27.238Z,327.00
2018-07-20T18:02:28.146Z,327.00
2018-07-20T18:03:28.073Z,327.00
2018-07-20T18:04:29.003Z,328.00
2018-07-20T18:05:29.754Z,328.00
2018-07-20T18:06:31.518Z,328.00
2018-07-20T18:07:32.297Z,328.00
2018-07-20T18:08:33.074Z,327.00
2018-07-20T18:09:34.281Z,328.00
2018-07-20T18:10:34.608Z,327.00
2018-07-20T18:11:33.874Z,327.00
2018-07-20T18:12:45.133Z,326.00
2018-07-20T18:13:45.913Z,327.00
2018-07-20T18:14:46.685Z,327.00
2018-07-20T18:15:47.581Z,326.00
2018-07-20T18:16:47.274Z,327.00
2018-07-20T18:17:49.069Z,326.00
2018-07-20T18:18:48.824Z,326.00
2018-07-20T18:19:50.687Z,326.00
2018-07-20T18:20:50.416Z,326.00
2018-07-20T18:21:52.198Z,325.00
2018-07-20T18:22:52.972Z,326.00
2018-07-20T18:23:53.749Z,326.00
2018-07-20T18:24:54.534Z,326.00
2018-07-20T18:25:55.334Z,321.00
2018-07-20T18:26:56.154Z,326.00
2018-07-20T18:27:55.888Z,325.00
2018-07-20T18:28:57.662Z,324.00
2018-07-20T18:29:58.441Z,326.00
2018-07-20T18:30:59.246Z,326.00
2018-07-20T18:31:59.026Z,321.00
2018-07-20T18:33:00.803Z,325.00
2018-07-20T18:34:01.737Z,326.00
2018-07-20T18:35:01.364Z,325.00
2018-07-20T18:36:03.164Z,326.00
2018-07-20T18:37:03.940Z,326.00
2018-07-20T18:38:04.724Z,326.00
2018-07-20T18:39:05.501Z,325.00
2018-07-20T18:40:06.275Z,325.00
2018-07-20T18:41:07.081Z,325.00
2018-07-20T18:42:06.891Z,325.00
2018-07-20T18:43:07.633Z,325.00
2018-07-20T18:44:09.411Z,325.00
2018-07-20T18:45:10.188Z,325.00
2018-07-20T18:46:11.992Z,324.00
2018-07-20T18:47:11.789Z,325.00
2018-07-20T18:48:12.556Z,324.00
2018-07-20T18:49:13.337Z,324.00
2018-07-20T18:50:14.109Z,324.00
2018-07-20T18:51:14.914Z,324.00
2018-07-20T18:52:15.691Z,324.00
2018-07-20T18:53:16.474Z,324.00
2018-07-20T18:54:17.262Z,324.00
2018-07-20T18:55:18.029Z,324.00
2018-07-20T18:56:18.848Z,325.00
2018-07-20T18:57:19.610Z,324.00
2018-07-20T18:58:20.388Z,324.00
2018-07-20T18:59:21.165Z,322.00